Terminal Aerodrome Forecast
Issued by NWS

Home | Current Version | Previous Version | Text Only | Print | Product List | Glossary Off
Versions: 1 2 3 4 5 6 7 8 9 10 11 12 13 14 15 16 17 18 19 20 21 22

000
FTUS43 KUNR 300100 AAB
TAFGCC
TAF AMD
KGCC 300112Z 3001/3024 15012KT P6SM SCT030 BKN100
     FM300400 15008KT P6SM -SHRA SCT020 OVC040
      TEMPO 3004/3007 3SM TSRA BKN020 OVC040CB
     FM300700 30011KT P6SM -SHRA OVC020
     FM301000 33018G28KT P6SM -SHRA OVC010
     FM301500 31018KT P6SM SCT020 BKN050=

USA.gov is the U.S. government's official web portal to all federal, state and local government web resources and services.